EW7199 Weather Reports


Display with metric or nautical units.
time (UTC)temp
F
wind
direction
speed
MPH
gust
MPH
rain 1hr
in
rain 24hr
in
rain mn
in
humidity
%
barometer
mb
20211129122405 54 194 6.0 20.0 0.00 0.09 0.09 78 994.6
20211129121905 54 243 10.0 20.0 0.00 0.09 0.09 78 994.6
20211129121405 54 229 10.0 28.0 0.00 0.09 0.09 76 994.5
20211129120906 54 236 9.0 28.0 0.00 0.09 0.09 74 994.5
20211129120405 55 281 5.0 18.0 0.01 0.09 0.09 72 994.5
20211129115906 55 229 10.0 22.0 0.01 0.09 0.09 73 994.4
20211129115405 55 216 7.0 20.0 0.01 0.09 0.09 71 994.5
20211129114905 55 237 5.0 15.0 0.01 0.09 0.09 71 994.6
20211129114405 55 249 5.0 18.0 0.01 0.09 0.09 70 994.6
20211129113905 55 228 1.0 18.0 0.01 0.09 0.09 70 994.6
20211129113406 55 243 12.0 18.0 0.01 0.09 0.09 68 994.6
20211129112905 55 260 6.0 21.0 0.02 0.09 0.09 69 994.6
20211129112405 55 262 9.0 23.0 0.02 0.09 0.09 70 994.6
20211129111906 55 249 9.0 24.0 0.02 0.09 0.09 70 994.6
20211129111406 55 268 2.0 16.0 0.02 0.09 0.09 73 994.6
20211129110905 55 228 4.0 15.0 0.02 0.09 0.09 73 994.5
20211129110406 55 231 6.0 20.0 0.01 0.08 0.08 73 994.8
20211129105905 54 267 4.0 17.0 0.01 0.08 0.08 73 994.8
20211129105405 54 206 1.0 10.0 0.02 0.08 0.08 74 994.9
20211129104905 54 276 1.0 13.0 0.02 0.08 0.08 74 994.7
20211129104405 54 263 2.0 12.0 0.02 0.08 0.08 75 995.0
20211129103905 54 124 1.0 7.0 0.02 0.08 0.08 75 995.2
20211129103406 54 237 1.0 6.0 0.02 0.08 0.08 74 995.3
20211129102906 54 258 1.0 6.0 0.01 0.07 0.07 75 995.4
20211129102406 54 219 0.0 1.0 0.01 0.07 0.07 75 995.5
20211129101906 54 250 4.0 12.0 0.01 0.07 0.07 75 995.6
20211129101405 54 225 4.0 17.0 0.01 0.07 0.07 74 995.6
20211129100905 54 203 5.0 12.0 0.01 0.07 0.07 75 995.6
20211129100405 54 249 0.0 16.0 0.01 0.07 0.07 77 995.8
20211129095905 55 184 1.0 8.0 0.01 0.07 0.07 77 995.9
20211129095405 55 267 5.0 20.0 0.00 0.06 0.06 74 995.9
20211129094905 54 195 5.0 18.0 0.00 0.06 0.06 74 996.0
20211129094405 54 211 0.0 0.0 0.00 0.06 0.06 73 995.9
20211129093905 54 231 2.0 8.0 0.00 0.06 0.06 74 996.0
20211129093405 55 279 1.0 6.0 0.00 0.06 0.06 74 996.0
20211129092905 55 228 0.0 3.0 0.00 0.06 0.06 74 996.1
20211129092405 55 152 0.0 2.0 0.00 0.06 0.06 74 996.0
20211129091905 55 256 0.0 2.0 0.00 0.06 0.06 74 996.0
20211129091405 55 229 0.0 1.0 0.00 0.06 0.06 75 996.1
20211129090905 55 329 0.0 0.0 0.00 0.06 0.06 75 996.0
20211129090405 55 240 0.0 1.0 0.00 0.06 0.06 76 995.8
20211129085905 55 195 0.0 2.0 0.00 0.06 0.06 78 996.0
20211129085405 54 161 0.0 0.0 0.00 0.06 0.06 80 996.1
20211129084905 54 119 0.0 0.0 0.00 0.06 0.06 81 996.0
20211129084406 53 164 0.0 1.0 0.00 0.06 0.06 82 995.9
20211129083905 53 143 0.0 0.0 0.00 0.06 0.06 83 996.0
20211129083405 52 165 0.0 0.0 0.00 0.06 0.06 83 996.1
20211129082905 52 141 0.0 0.0 0.01 0.06 0.06 84 996.2
20211129082405 51 161 0.0 0.0 0.02 0.06 0.06 83 996.1
20211129081905 51 108 0.0 0.0 0.05 0.06 0.06 84 996.2
20211129081405 51 147 0.0 0.0 0.06 0.06 0.06 85 996.0
20211129080905 50 151 0.0 0.0 0.06 0.06 0.06 85 995.9
20211129080405 50 152 0.0 0.0 0.06 0.06 0.06 85 995.8
20211129075905 50 129 0.0 0.0 0.06 0.06 0.06 84 995.9
20211129075405 51 130 0.0 0.0 0.06 0.06 0.06 84 996.0
20211129074905 51 139 0.0 0.0 0.06 0.06 0.06 84 995.9
20211129074405 51 159 0.0 0.0 0.06 0.06 0.06 83 995.8
20211129073905 51 159 0.0 0.0 0.06 0.06 0.06 82 995.9
20211129073405 51 159 0.0 0.0 0.06 0.06 0.06 81 996.1
20211129072905 52 151 0.0 0.0 0.05 0.05 0.05 79 996.3
20211129072405 52 241 0.0 0.0 0.04 0.04 0.04 76 996.4
20211129071905 52 153 0.0 2.0 0.01 0.01 0.01 75 996.5
20211129071405 52 151 0.0 1.0 0.00 0.00 0.00 73 996.3
20211129070905 52 187 0.0 0.0 0.00 0.00 0.00 73 996.2
20211129070406 52 261 2.0 7.0 0.00 0.00 0.00 72 996.1
20211129065905 52 277 0.0 0.0 0.00 0.00 0.00 72 996.1
20211129065405 52 273 1.0 8.0 0.00 0.00 0.00 72 996.2
20211129064905 52 258 0.0 5.0 0.00 0.00 0.00 72 996.2
20211129064405 52 239 2.0 8.0 0.00 0.00 0.00 72 996.2
20211129063905 52 257 3.0 6.0 0.00 0.00 0.00 73 996.1
20211129063405 51 233 0.0 0.0 0.00 0.00 0.00 74 996.0
20211129062905 51 240 0.0 0.0 0.00 0.00 0.00 76 995.9
20211129062405 51 281 0.0 0.0 0.00 0.00 0.00 76 995.8
20211129061905 51 281 0.0 0.0 0.00 0.00 0.00 76 995.9
20211129061406 51 281 0.0 3.0 0.00 0.00 0.00 77 995.8
20211129060906 51 278 0.0 3.0 0.00 0.00 0.00 77 995.8
20211129060404 51 271 0.0 0.0 0.00 0.00 0.00 77 995.8
20211129055905 51 284 0.0 0.0 0.00 0.00 0.00 77 995.7
20211129055405 51 287 0.0 0.0 0.00 0.00 0.00 78 995.6
20211129054905 51 286 0.0 0.0 0.00 0.00 0.00 78 995.6
20211129054404 51 275 0.0 3.0 0.00 0.00 0.00 77 995.7
20211129053905 51 281 1.0 3.0 0.00 0.00 0.00 77 995.7
20211129053405 51 287 0.0 1.0 0.00 0.00 0.00 77 995.6
20211129052905 51 289 0.0 0.0 0.00 0.00 0.00 77 995.4
20211129052405 51 276 0.0 0.0 0.00 0.00 0.00 77 995.4
20211129051905 51 273 0.0 0.0 0.00 0.00 0.00 76 995.5
20211129051405 51 284 1.0 8.0 0.00 0.00 0.00 76 995.6
20211129050905 51 265 1.0 13.0 0.00 0.00 0.00 75 995.7
20211129050405 51 267 0.0 7.0 0.00 0.00 0.00 75 995.7
20211129045905 51 280 1.0 9.0 0.00 0.00 0.00 73 995.7
20211129045406 52 288 2.0 12.0 0.00 0.00 0.00 73 995.6
20211129044905 52 288 2.0 16.0 0.00 0.00 0.00 74 995.6
20211129044405 52 253 1.0 13.0 0.00 0.00 0.00 74 995.5
20211129043905 52 250 1.0 17.0 0.00 0.00 0.00 73 995.5
20211129043405 52 253 4.0 15.0 0.00 0.00 0.00 73 995.5
20211129042905 52 257 5.0 17.0 0.00 0.00 0.00 72 995.6
20211129042404 53 260 10.0 21.0 0.00 0.00 0.00 70 995.5
20211129041905 53 257 7.0 20.0 0.00 0.00 0.00 70 995.4
20211129041405 53 277 6.0 20.0 0.00 0.00 0.00 68 995.3
20211129040905 54 279 3.0 15.0 0.00 0.00 0.00 67 995.1
20211129040405 54 262 3.0 13.0 0.00 0.00 0.00 66 995.0
20211129035905 54 256 2.0 16.0 0.00 0.00 0.00 68 995.0
20211129035404 54 260 9.0 15.0 0.00 0.00 0.00 68 995.0
20211129034905 54 260 2.0 16.0 0.00 0.00 0.00 67 995.1
20211129034404 54 260 1.0 16.0 0.00 0.00 0.00 67 994.9
20211129033905 54 270 0.0 3.0 0.00 0.00 0.00 67 994.8
20211129033405 54 250 0.0 1.0 0.00 0.00 0.00 66 994.8
20211129032904 54 242 0.0 10.0 0.00 0.00 0.00 65 994.7
20211129032405 54 252 0.0 9.0 0.00 0.00 0.00 65 994.7
20211129031905 54 254 1.0 8.0 0.00 0.00 0.00 67 994.7
20211129031405 54 243 0.0 0.0 0.00 0.00 0.00 67 994.7
20211129030905 55 249 4.0 12.0 0.00 0.00 0.00 65 994.8
20211129030405 55 261 6.0 16.0 0.00 0.00 0.00 63 994.8
20211129025905 54 259 1.0 12.0 0.00 0.00 0.00 64 994.8
20211129025405 55 227 2.0 14.0 0.00 0.00 0.00 63 994.8
20211129024905 55 240 0.0 10.0 0.00 0.00 0.00 60 994.7
20211129024404 55 266 1.0 15.0 0.00 0.00 0.00 62 994.7
20211129023905 55 252 9.0 14.0 0.00 0.00 0.00 66 994.7
20211129023405 55 253 1.0 20.0 0.00 0.00 0.00 64 994.7
20211129022905 55 251 13.0 20.0 0.00 0.00 0.00 63 994.7
20211129022418 55 255 15.0 22.0 0.00 0.00 0.00 63 994.8
20211129021915 55 239 11.0 21.0 0.00 0.00 0.00 66 994.6
20211129021414 55 232 11.0 20.0 0.00 0.00 0.00 66 994.6
20211129020914 55 246 10.0 18.0 0.00 0.00 0.00 64 994.5
20211129020414 55 240 10.0 23.0 0.00 0.00 0.00 64 994.4
20211129015915 55 256 16.0 23.0 0.00 0.00 0.00 63 994.6
20211129015414 55 257 21.0 29.0 0.00 0.00 0.00 63 994.6
20211129014914 55 252 22.0 30.0 0.00 0.00 0.00 60 994.7
20211129014414 55 259 27.0 33.0 0.00 0.00 0.00 65 994.7
20211129013914 55 245 18.0 24.0 0.00 0.00 0.00 67 994.9
20211129013414 55 241 14.0 24.0 0.00 0.00 0.00 66 994.8
20211129012914 55 246 13.0 20.0 0.00 0.00 0.00 67 995.0
20211129012414 55 239 12.0 20.0 0.00 0.00 0.00 63 994.9
20211129011914 55 250 13.0 21.0 0.00 0.00 0.00 68 994.9
20211129011415 55 260 14.0 20.0 0.00 0.00 0.00 67 995.1
20211129010914 55 260 16.0 24.0 0.00 0.00 0.00 63 995.1
20211129010414 55 261 20.0 26.0 0.00 0.00 0.00 64 995.0
20211129005914 55 261 19.0 25.0 0.00 0.00 0.00 66 995.0
20211129005415 56 255 16.0 22.0 0.00 0.00 0.00 68 995.0
20211129004914 56 262 14.0 21.0 0.00 0.00 0.00 66 995.1
20211129004414 55 256 13.0 21.0 0.00 0.00 0.00 68 994.9
20211129003915 55 264 14.0 17.0 0.00 0.00 0.00 65 994.8
20211129003414 55 257 12.0 17.0 0.00 0.00 0.00 63 994.5
20211129002914 55 249 11.0 15.0 0.00 0.00 0.00 64 994.4
20211129002414 55 247 13.0 20.0 0.00 0.00 0.00 64 994.5
20211129001914 55 267 12.0 20.0 0.00 0.00 0.00 69 994.7
20211129001414 55 249 7.0 14.0 0.00 0.00 0.00 69 994.7
20211129000914 55 269 9.0 14.0 0.00 0.00 0.00 70 994.8
20211129000415 55 266 11.0 15.0 0.00 0.00 0.00 69 994.8
20211128235914 55 276 10.0 15.0 0.00 0.00 0.00 67 994.9
20211128235414 55 286 10.0 15.0 0.00 0.00 0.00 67 995.0
20211128234914 55 293 7.0 12.0 0.00 0.00 0.00 66 994.9
20211128234414 55 292 5.0 13.0 0.00 0.00 0.00 67 994.9
20211128233914 55 337 3.0 8.0 0.00 0.00 0.00 66 994.9
20211128233414 55 299 5.0 12.0 0.00 0.00 0.00 66 995.0
20211128232914 55 292 4.0 8.0 0.00 0.00 0.00 66 994.9
20211128232414 55 323 2.0 6.0 0.00 0.00 0.00 66 994.7
20211128231914 55 298 0.0 3.0 0.00 0.00 0.00 66 994.7
20211128231414 55 273 2.0 10.0 0.00 0.00 0.00 66 994.8
20211128230914 55 305 3.0 7.0 0.00 0.00 0.00 67 994.8
20211128230414 55 312 0.0 0.0 0.00 0.00 0.00 67 994.7
20211128225914 55 293 0.0 0.0 0.00 0.00 0.00 67 994.7
20211128225414 55 264 0.0 3.0 0.00 0.00 0.00 66 994.6
20211128224914 55 308 5.0 9.0 0.00 0.00 0.00 66 994.7
20211128224415 55 286 3.0 7.0 0.00 0.00 0.00 65 994.8
20211128223914 55 319 3.0 10.0 0.00 0.00 0.00 65 994.9
20211128223414 55 336 8.0 12.0 0.00 0.00 0.00 64 994.8
20211128222914 55 331 6.0 12.0 0.00 0.00 0.00 66 994.8
20211128222414 55 324 7.0 12.0 0.00 0.00 0.00 66 994.9
20211128221914 55 310 7.0 12.0 0.00 0.00 0.00 66 994.8
20211128221414 55 289 4.0 13.0 0.00 0.00 0.00 66 994.7
20211128220913 55 338 5.0 12.0 0.00 0.00 0.00 66 994.6
20211128220414 55 303 5.0 13.0 0.00 0.00 0.00 66 994.7
20211128215913 55 312 6.0 13.0 0.00 0.00 0.00 66 994.9
20211128215414 56 310 5.0 12.0 0.00 0.00 0.00 66 994.9
20211128214914 56 298 6.0 12.0 0.00 0.00 0.00 66 994.9
20211128214413 56 297 0.0 8.0 0.00 0.00 0.00 66 995.0
20211128213914 56 281 1.0 14.0 0.00 0.00 0.00 67 995.0
20211128213414 56 305 5.0 13.0 0.00 0.00 0.00 68 995.0
20211128212914 56 317 5.0 13.0 0.00 0.00 0.00 67 995.0
20211128212414 56 279 3.0 9.0 0.00 0.00 0.00 67 995.0
20211128211914 57 248 5.0 12.0 0.00 0.00 0.00 67 994.9
20211128211414 57 316 5.0 10.0 0.00 0.00 0.00 68 994.8
20211128210914 57 317 6.0 10.0 0.00 0.00 0.00 68 994.8
20211128210413 57 331 7.0 12.0 0.00 0.00 0.00 68 994.8
20211128205914 57 315 5.0 8.0 0.00 0.00 0.00 68 994.8
20211128205414 57 315 5.0 10.0 0.00 0.00 0.00 69 994.9
20211128204914 57 329 5.0 8.0 0.00 0.00 0.00 70 995.0
20211128204413 57 334 5.0 12.0 0.00 0.00 0.00 70 994.9
20211128203914 57 281 6.0 17.0 0.00 0.00 0.00 71 994.9
20211128203413 58 271 10.0 17.0 0.00 0.00 0.00 68 994.8
20211128202914 59 278 9.0 17.0 0.00 0.00 0.00 67 994.8
20211128202414 60 311 13.0 23.0 0.00 0.00 0.00 67 994.9
20211128201914 60 278 14.0 23.0 0.00 0.00 0.00 65 994.8
20211128201414 59 276 11.0 17.0 0.00 0.00 0.00 66 994.8
20211128200914 59 264 7.0 9.0 0.00 0.00 0.00 66 994.7
20211128200414 59 258 1.0 3.0 0.00 0.00 0.00 65 994.6
20211128195914 60 299 0.0 0.0 0.00 0.00 0.00 64 994.6
20211128195414 60 295 0.0 0.0 0.00 0.00 0.00 64 994.6
20211128194914 60 295 0.0 0.0 0.00 0.00 0.00 65 994.5
20211128194414 60 92 2.0 13.0 0.00 0.00 0.00 65 994.4
20211128193914 60 281 6.0 13.0 0.00 0.00 0.00 64 994.5
20211128193414 60 278 7.0 15.0 0.00 0.00 0.00 64 994.4
20211128192914 60 285 11.0 14.0 0.00 0.00 0.00 64 994.4
20211128192414 60 280 9.0 14.0 0.00 0.00 0.00 64 994.3
20211128191914 60 261 9.0 15.0 0.00 0.00 0.00 64 994.3
20211128191414 60 272 9.0 14.0 0.00 0.00 0.00 63 994.2
20211128190914 60 257 10.0 16.0 0.00 0.00 0.00 61 994.0
20211128190413 60 261 14.0 20.0 0.00 0.00 0.00 59 994.1
20211128185915 60 260 15.0 20.0 0.00 0.00 0.00 60 994.2
20211128185414 61 264 17.0 23.0 0.00 0.00 0.00 60 994.2
20211128184914 61 265 14.0 20.0 0.00 0.00 0.00 62 994.2
20211128184413 60 256 16.0 26.0 0.00 0.00 0.00 63 994.1
20211128183914 60 259 20.0 26.0 0.00 0.00 0.00 65 994.1
20211128183414 60 262 18.0 25.0 0.00 0.00 0.00 67 994.2
20211128182914 60 263 17.0 28.0 0.00 0.00 0.00 66 994.3
20211128182414 60 259 21.0 26.0 0.00 0.00 0.00 66 994.3
20211128181914 60 256 20.0 31.0 0.00 0.00 0.00 68 994.3
20211128181413 60 258 18.0 26.0 0.00 0.00 0.00 66 994.2
20211128180914 60 257 20.0 29.0 0.00 0.00 0.00 64 994.2
20211128180413 60 261 20.0 29.0 0.00 0.00 0.00 64 994.3
20211128175914 61 256 18.0 26.0 0.00 0.00 0.00 64 994.1
20211128175414 61 256 19.0 26.0 0.00 0.00 0.00 63 994.0
20211128174914 61 257 21.0 26.0 0.00 0.00 0.00 62 993.9
20211128174414 61 264 20.0 26.0 0.00 0.00 0.00 62 994.0
20211128173913 61 261 17.0 26.0 0.00 0.00 0.00 63 993.8
20211128173413 61 254 15.0 29.0 0.00 0.00 0.00 64 993.8
20211128172914 61 259 16.0 24.0 0.00 0.00 0.00 73 993.8
20211128172414 61 256 14.0 20.0 0.00 0.00 0.00 74 993.8
20211128171914 61 252 15.0 22.0 0.00 0.00 0.00 72 993.7
20211128171414 61 231 13.0 24.0 0.00 0.00 0.00 72 993.7
20211128170914 61 248 17.0 23.0 0.00 0.00 0.00 72 993.7
20211128170415 61 245 16.0 24.0 0.00 0.00 0.00 71 993.8
20211128165913 61 242 15.0 28.0 0.00 0.00 0.00 70 993.9
20211128165413 61 243 16.0 25.0 0.00 0.00 0.00 69 993.8
20211128164914 61 232 13.0 22.0 0.00 0.00 0.00 68 993.8
20211128164414 61 243 14.0 24.0 0.00 0.00 0.00 68 993.7
20211128163914 61 240 10.0 22.0 0.00 0.00 0.00 66 993.6
20211128163414 62 243 12.0 18.0 0.00 0.00 0.00 66 993.5
20211128162914 62 225 7.0 17.0 0.00 0.00 0.00 65 993.5
20211128162414 62 246 9.0 18.0 0.00 0.00 0.00 65 993.3
20211128161914 62 276 13.0 25.0 0.00 0.00 0.00 65 993.3
20211128161415 62 236 10.0 17.0 0.00 0.00 0.00 66 993.1
20211128160914 62 246 8.0 21.0 0.00 0.00 0.00 65 993.1
20211128160413 62 266 11.0 21.0 0.00 0.00 0.00 66 993.2
20211128155914 62 233 9.0 20.0 0.00 0.00 0.00 68 993.3
20211128155414 61 247 8.0 20.0 0.00 0.00 0.00 68 993.4
20211128154913 61 261 11.0 21.0 0.00 0.00 0.00 70 993.5
20211128154414 61 200 6.0 15.0 0.00 0.00 0.00 69 993.4
20211128153914 61 227 9.0 17.0 0.00 0.00 0.00 70 993.4
20211128153413 61 248 9.0 20.0 0.00 0.00 0.00 70 993.4
20211128152914 61 259 7.0 15.0 0.00 0.00 0.00 70 993.5
20211128152414 61 236 7.0 16.0 0.00 0.00 0.00 69 993.3
20211128151914 61 17 9.0 16.0 0.00 0.00 0.00 70 993.1
20211128151414 62 243 8.0 20.0 0.00 0.00 0.00 69 993.2
20211128150914 62 244 7.0 22.0 0.00 0.00 0.00 69 993.3
20211128150413 62 245 7.0 18.0 0.00 0.00 0.00 69 993.2
20211128145913 62 236 12.0 23.0 0.00 0.00 0.00 68 993.2
20211128145413 62 249 13.0 21.0 0.00 0.00 0.00 67 993.4
20211128144914 62 224 9.0 21.0 0.00 0.00 0.00 69 993.4
20211128144414 62 267 5.0 15.0 0.00 0.00 0.00 70 993.3
20211128143913 62 238 10.0 20.0 0.00 0.00 0.00 69 993.2
20211128143414 62 241 11.0 20.0 0.00 0.00 0.00 67 993.3
20211128142913 62 245 7.0 20.0 0.00 0.00 0.00 66 993.3
20211128142413 63 224 5.0 16.0 0.00 0.00 0.00 65 993.4
20211128141913 63 217 9.0 21.0 0.00 0.00 0.00 64 993.4
20211128141414 62 234 7.0 18.0 0.00 0.00 0.00 65 993.2
20211128140913 62 229 9.0 26.0 0.00 0.00 0.00 65 993.2
20211128140413 62 239 9.0 23.0 0.00 0.00 0.00 65 993.3
20211128135914 62 152 6.0 15.0 0.00 0.00 0.00 66 993.6
20211128135413 63 200 7.0 16.0 0.00 0.00 0.00 65 993.7
20211128134914 63 249 6.0 15.0 0.00 0.00 0.00 64 993.6
20211128134414 63 221 4.0 13.0 0.00 0.00 0.00 62 993.7
20211128133914 63 217 6.0 13.0 0.00 0.00 0.00 61 993.5
20211128133414 63 265 7.0 24.0 0.00 0.00 0.00 62 993.5
20211128132913 64 214 11.0 20.0 0.00 0.00 0.00 61 993.6
20211128132413 64 223 4.0 12.0 0.00 0.00 0.00 66 993.7
20211128131914 64 248 6.0 15.0 0.00 0.00 0.00 66 993.7
20211128131413 63 222 6.0 20.0 0.00 0.00 0.00 68 993.6
20211128130914 63 207 3.0 10.0 0.00 0.00 0.00 74 993.7
20211128130413 63 160 3.0 10.0 0.00 0.00 0.00 75 994.1
20211128125914 63 75 2.0 12.0 0.00 0.00 0.00 75 994.2
20211128125414 63 269 5.0 15.0 0.00 0.00 0.00 73 994.3
20211128124914 63 185 3.0 12.0 0.00 0.00 0.00 71 994.2
20211128124413 63 165 7.0 17.0 0.00 0.01 0.00 66 993.9
20211128123913 63 176 2.0 7.0 0.00 0.01 0.00 69 994.0
20211128123413 63 250 3.0 9.0 0.00 0.01 0.00 70 994.1
20211128122914 63 261 3.0 9.0 0.00 0.01 0.00 74 994.0